createdAt,value
2023-03-20T00:03:48.196Z,78.55
2023-03-20T00:08:52.866Z,79.00
2023-03-20T00:13:54.177Z,78.20
2023-03-20T00:18:56.346Z,78.84
2023-03-20T00:23:58.649Z,78.29
2023-03-20T00:28:59.496Z,78.24
2023-03-20T00:34:02.218Z,78.16
2023-03-20T00:39:04.870Z,77.79
2023-03-20T00:44:22.422Z,78.03
2023-03-20T00:49:26.449Z,78.45
2023-03-20T00:54:29.155Z,78.74
2023-03-20T00:59:34.388Z,78.38
2023-03-20T01:04:37.603Z,78.66
2023-03-20T01:09:39.631Z,79.09
2023-03-20T01:14:40.343Z,78.80
2023-03-20T01:19:41.500Z,78.36
2023-03-20T01:24:43.475Z,78.70
2023-03-20T01:29:44.224Z,78.75
2023-03-20T01:34:45.122Z,78.55
2023-03-20T01:39:47.169Z,78.92
2023-03-20T01:44:48.706Z,78.46
2023-03-20T01:50:26.667Z,79.01
2023-03-20T01:55:35.535Z,78.57
2023-03-20T02:00:38.184Z,78.17
2023-03-20T02:05:41.609Z,78.47
2023-03-20T02:10:44.994Z,78.72
2023-03-20T02:16:00.607Z,78.81
2023-03-20T02:21:57.158Z,78.93
2023-03-20T02:27:10.210Z,79.07
2023-03-20T02:32:46.309Z,78.48
2023-03-20T02:38:01.295Z,78.72
2023-03-20T02:43:11.046Z,79.73
2023-03-20T02:48:23.051Z,78.93
2023-03-20T02:53:34.984Z,79.01
2023-03-20T02:58:42.725Z,78.90
2023-03-20T03:03:49.661Z,78.76
2023-03-20T03:08:57.553Z,79.44
2023-03-20T03:13:59.761Z,79.28
2023-03-20T03:19:08.541Z,78.50
2023-03-20T03:24:39.739Z,79.25
2023-03-20T03:29:42.356Z,79.26
2023-03-20T03:34:43.324Z,79.08
2023-03-20T03:39:53.353Z,79.76
2023-03-20T03:45:02.588Z,79.47
2023-03-20T03:50:11.317Z,80.09
2023-03-20T03:55:19.754Z,79.92
2023-03-20T04:00:42.403Z,79.77
2023-03-20T04:05:46.963Z,79.57
2023-03-20T04:10:48.984Z,80.49
2023-03-20T04:15:49.755Z,79.43
2023-03-20T04:20:51.970Z,79.84
2023-03-20T04:25:54.001Z,79.69
2023-03-20T04:30:57.563Z,80.39
2023-03-20T04:36:16.991Z,80.35
2023-03-20T04:41:21.097Z,79.86
2023-03-20T04:46:27.709Z,80.13
2023-03-20T04:51:28.810Z,79.79
2023-03-20T04:56:30.924Z,80.21
2023-03-20T05:01:45.016Z,80.89
2023-03-20T05:06:49.069Z,81.59
2023-03-20T05:11:53.335Z,82.52
2023-03-20T05:17:23.428Z,81.23
2023-03-20T05:22:42.475Z,80.15
2023-03-20T05:28:07.362Z,79.50
2023-03-20T05:33:22.939Z,79.53
2023-03-20T05:38:42.829Z,80.21
2023-03-20T05:44:10.677Z,79.33
2023-03-20T05:49:20.082Z,78.96
2023-03-20T05:54:39.084Z,78.81
2023-03-20T05:59:53.533Z,78.48
2023-03-20T06:05:19.064Z,77.25
2023-03-20T06:10:24.750Z,75.65
2023-03-20T06:15:28.242Z,75.70
2023-03-20T06:20:36.944Z,75.11
2023-03-20T06:25:39.466Z,73.03
2023-03-20T06:30:43.482Z,72.31
2023-03-20T06:35:50.262Z,72.39
2023-03-20T06:40:51.293Z,71.94
2023-03-20T06:45:54.043Z,71.65
2023-03-20T06:50:56.953Z,71.70
2023-03-20T06:56:03.101Z,71.35
2023-03-20T07:01:10.197Z,70.81
2023-03-20T07:06:13.798Z,70.47
2023-03-20T07:11:14.549Z,70.01
2023-03-20T07:16:17.279Z,69.77
2023-03-20T07:21:21.302Z,69.63
2023-03-20T07:26:22.177Z,69.76
2023-03-20T07:31:26.810Z,69.98
2023-03-20T07:36:36.780Z,68.14
2023-03-20T07:41:37.866Z,68.08
2023-03-20T07:46:44.540Z,68.23
2023-03-20T07:51:45.714Z,67.92
2023-03-20T07:56:46.541Z,67.11
2023-03-20T08:01:49.206Z,67.16
2023-03-20T08:06:51.960Z,68.49
2023-03-20T08:11:52.855Z,68.82
2023-03-20T08:17:12.352Z,68.80
2023-03-20T08:22:14.773Z,68.87
2023-03-20T08:27:15.442Z,69.43
2023-03-20T08:32:18.051Z,68.53
2023-03-20T08:37:21.484Z,68.63
2023-03-20T08:42:22.131Z,68.08
2023-03-20T08:47:27.565Z,67.57
2023-03-20T08:52:28.431Z,67.22
2023-03-20T08:57:29.311Z,67.36
2023-03-20T09:02:31.432Z,67.93
2023-03-20T09:07:32.190Z,69.14
2023-03-20T09:12:33.486Z,69.11
2023-03-20T09:17:35.642Z,66.99
2023-03-20T09:22:36.372Z,67.58
2023-03-20T09:27:37.172Z,66.85
2023-03-20T09:32:39.606Z,67.22
2023-03-20T09:37:40.380Z,66.59
2023-03-20T09:42:48.883Z,67.75
2023-03-20T09:47:59.419Z,65.93
2023-03-20T09:53:07.267Z,65.39
2023-03-20T09:58:14.870Z,66.16
2023-03-20T10:03:23.391Z,66.04
2023-03-20T10:08:29.215Z,66.35
2023-03-20T10:13:41.217Z,65.03
2023-03-20T10:18:50.299Z,65.19
2023-03-20T10:24:00.271Z,64.81
2023-03-20T10:29:03.614Z,64.14
2023-03-20T10:34:21.670Z,63.76
2023-03-20T10:39:43.073Z,64.27
2023-03-20T10:44:50.186Z,64.09
2023-03-20T10:49:57.104Z,64.43
2023-03-20T10:55:01.443Z,65.00
2023-03-20T11:00:02.147Z,64.88
2023-03-20T11:05:21.272Z,66.74
2023-03-20T11:10:27.044Z,67.28
2023-03-20T11:15:32.112Z,67.16
2023-03-20T11:20:38.317Z,65.74
2023-03-20T11:25:47.038Z,64.78
2023-03-20T11:31:03.649Z,64.43
2023-03-20T11:36:14.825Z,64.43
2023-03-20T11:41:20.631Z,63.82
2023-03-20T11:46:23.964Z,63.77
2023-03-20T11:51:27.031Z,63.27
2023-03-20T11:56:29.750Z,63.36
2023-03-20T12:01:40.582Z,63.76
2023-03-20T12:06:47.955Z,64.08
2023-03-20T12:11:53.440Z,65.01
2023-03-20T12:17:02.453Z,65.25
2023-03-20T12:22:13.079Z,64.96
2023-03-20T12:27:22.496Z,65.18
2023-03-20T12:32:27.824Z,65.78
2023-03-20T12:37:29.833Z,66.28
2023-03-20T12:42:45.864Z,67.96
2023-03-20T12:47:59.561Z,66.87
2023-03-20T12:53:20.397Z,66.52
2023-03-20T12:58:30.206Z,66.55
2023-03-20T13:03:53.655Z,65.63
2023-03-20T13:09:33.753Z,63.80
2023-03-20T13:14:44.280Z,63.61
2023-03-20T13:19:54.100Z,64.70
2023-03-20T13:25:04.120Z,64.92
2023-03-20T13:30:12.494Z,64.78
2023-03-20T13:35:28.412Z,64.05
2023-03-20T13:40:33.519Z,64.33
2023-03-20T13:45:37.895Z,64.92
2023-03-20T13:50:45.861Z,66.09
2023-03-20T13:55:53.504Z,66.83
2023-03-20T14:01:00.982Z,66.65
2023-03-20T14:06:53.332Z,67.78
2023-03-20T14:11:57.825Z,68.41
2023-03-20T14:17:03.572Z,69.12
2023-03-20T14:22:04.996Z,69.38
2023-03-20T14:27:07.957Z,69.66
2023-03-20T14:32:34.041Z,69.98
2023-03-20T14:37:46.912Z,71.12
2023-03-20T14:42:56.751Z,71.61
2023-03-20T14:48:05.282Z,74.61
2023-03-20T14:53:16.197Z,74.87
2023-03-20T14:58:50.773Z,76.00
2023-03-20T15:03:54.764Z,76.18
2023-03-20T15:08:59.053Z,76.11
2023-03-20T15:14:02.958Z,77.47
2023-03-20T15:19:10.092Z,81.34
2023-03-20T15:24:20.740Z,83.56
2023-03-20T15:29:23.465Z,86.08
2023-03-20T15:34:27.783Z,86.20
2023-03-20T15:39:30.086Z,87.52
2023-03-20T15:44:37.984Z,87.35
2023-03-20T15:49:41.110Z,88.04
2023-03-20T15:54:43.484Z,88.09
2023-03-20T15:59:45.726Z,88.25
2023-03-20T16:04:49.432Z,87.58
2023-03-20T16:09:51.473Z,88.41
2023-03-20T16:14:54.867Z,87.02
2023-03-20T16:19:56.229Z,87.74
2023-03-20T16:25:01.065Z,86.41
2023-03-20T16:30:06.620Z,86.90
2023-03-20T16:35:16.740Z,87.39
2023-03-20T16:40:22.308Z,87.88
2023-03-20T16:45:29.898Z,88.26
2023-03-20T16:50:36.571Z,88.37
2023-03-20T16:55:43.263Z,88.27
2023-03-20T17:00:50.884Z,88.11
2023-03-20T17:05:56.309Z,88.77
2023-03-20T17:11:00.483Z,88.73
2023-03-20T17:16:02.782Z,88.04
2023-03-20T17:21:03.580Z,88.08
2023-03-20T17:26:04.544Z,88.42
2023-03-20T17:31:07.145Z,88.60
2023-03-20T17:36:16.069Z,88.91
2023-03-20T17:41:18.041Z,88.66
2023-03-20T17:46:21.553Z,88.87
2023-03-20T17:51:22.275Z,88.72
2023-03-20T17:56:23.925Z,89.54
2023-03-20T18:01:26.481Z,88.98
2023-03-20T18:06:29.326Z,89.62
2023-03-20T18:11:30.973Z,88.62
2023-03-20T18:16:33.369Z,89.16
2023-03-20T18:21:34.034Z,88.93
2023-03-20T18:26:34.727Z,88.91
2023-03-20T18:31:37.190Z,87.44
2023-03-20T18:36:38.634Z,87.22
2023-03-20T18:41:39.350Z,85.89
2023-03-20T18:46:41.943Z,84.04
2023-03-20T18:51:42.764Z,83.70
2023-03-20T18:56:43.667Z,83.20
2023-03-20T19:01:47.073Z,83.64
2023-03-20T19:06:48.652Z,83.37
2023-03-20T19:11:49.409Z,83.83
2023-03-20T19:16:52.010Z,84.22
2023-03-20T19:21:52.721Z,83.52
2023-03-20T19:26:57.060Z,84.19
2023-03-20T19:31:59.840Z,83.40
2023-03-20T19:37:00.615Z,83.90
2023-03-20T19:42:15.272Z,84.25
2023-03-20T19:47:23.440Z,84.31
2023-03-20T19:52:32.884Z,84.91
2023-03-20T19:57:33.603Z,84.91
2023-03-20T20:02:35.773Z,85.88
2023-03-20T20:08:09.208Z,86.27
2023-03-20T20:12:57.452Z,87.12
2023-03-20T20:17:59.681Z,88.12
2023-03-20T20:23:00.478Z,87.84
2023-03-20T20:28:01.200Z,88.14
2023-03-20T20:33:05.267Z,87.81
2023-03-20T20:43:59.552Z,88.35
2023-03-20T20:48:49.129Z,88.59
2023-03-20T20:53:49.806Z,88.42
2023-03-20T20:58:50.535Z,87.81
2023-03-20T21:03:52.608Z,88.11
2023-03-20T21:08:53.310Z,88.41
2023-03-20T21:13:54.544Z,88.12
2023-03-20T21:18:56.629Z,88.44
2023-03-20T21:23:57.397Z,87.87
2023-03-20T21:28:58.499Z,88.05
2023-03-20T21:34:00.664Z,88.77
2023-03-20T21:39:08.290Z,88.08
2023-03-20T21:44:16.602Z,88.03
2023-03-20T22:05:59.211Z,87.87
2023-03-20T22:17:08.595Z,87.72
2023-03-20T22:43:44.652Z,87.14
2023-03-20T22:48:18.318Z,87.45
2023-03-20T22:53:20.645Z,87.83
2023-03-20T22:58:21.344Z,88.03
2023-03-20T23:03:39.950Z,88.95
2023-03-20T23:08:50.749Z,89.07
2023-03-20T23:13:56.391Z,89.39
2023-03-20T23:18:57.734Z,89.28
2023-03-20T23:23:59.817Z,89.90
2023-03-20T23:29:01.672Z,89.78
2023-03-20T23:34:02.420Z,89.79
2023-03-20T23:39:04.841Z,87.71
2023-03-20T23:44:06.063Z,87.18
2023-03-20T23:49:06.749Z,87.16
2023-03-20T23:54:09.145Z,86.67
2023-03-20T23:59:20.543Z,86.85
